EDMA

Augsburg Airport

Augsburg, Germany
METAR EDMA 152150Z AUTO 00000KT 9999 // NCD 14/12 Q1021
Observed Flight Rules
Aug-15 @ 21:50 UTC (38 minutes ago) Visual Flight Rules
Visibility Clouds
10,000+ meters
  • Clear skies
Temperatures Readings
Current 14°C / 57°F
Dewpoint 12°C / 54°F
Humidity 88%
Altimeter 30.15" Hg
Pressure 1021 hPa
Elevation 463
METAR EDMA 152150Z AUTO 00000KT 9999 // NCD 14/12 Q1021
Observed Flight Rules
Aug-15 @ 21:50 UTC
(38 minutes ago)
VFR
Clouds
  • Clear skies
Temperature Dewpoint
14°C / 57°F 12°C / 54°F
Humidity Altimeter Pressure
88% 30.15" Hg 1021 hPa